sensor_id;sensor_type;location;lat;lon;timestamp;P1;durP1;ratioP1;P2;durP2;ratioP2
58360;SDS011;44164;44.954;10.068;2022-07-03T00:02:17;3.03;;;1.40;;
58360;SDS011;44164;44.954;10.068;2022-07-03T00:04:43;1.95;;;1.40;;
58360;SDS011;44164;44.954;10.068;2022-07-03T00:07:09;2.28;;;1.20;;
58360;SDS011;44164;44.954;10.068;2022-07-03T00:09:35;3.17;;;1.52;;
58360;SDS011;44164;44.954;10.068;2022-07-03T00:12:01;2.42;;;1.23;;
58360;SDS011;44164;44.954;10.068;2022-07-03T00:14:27;2.00;;;1.40;;
58360;SDS011;44164;44.954;10.068;2022-07-03T00:16:54;2.35;;;1.38;;
58360;SDS011;44164;44.954;10.068;2022-07-03T00:19:20;2.80;;;1.35;;
58360;SDS011;44164;44.954;10.068;2022-07-03T00:21:48;3.13;;;1.52;;
58360;SDS011;44164;44.954;10.068;2022-07-03T00:24:26;1.75;;;1.20;;
58360;SDS011;44164;44.954;10.068;2022-07-03T00:26:54;2.58;;;1.55;;
58360;SDS011;44164;44.954;10.068;2022-07-03T00:29:22;1.98;;;1.20;;
58360;SDS011;44164;44.954;10.068;2022-07-03T00:31:49;2.63;;;1.20;;
58360;SDS011;44164;44.954;10.068;2022-07-03T00:34:16;2.80;;;1.70;;
58360;SDS011;44164;44.954;10.068;2022-07-03T00:36:43;2.60;;;1.60;;
58360;SDS011;44164;44.954;10.068;2022-07-03T00:39:11;2.47;;;1.52;;
58360;SDS011;44164;44.954;10.068;2022-07-03T00:41:37;2.22;;;1.20;;
58360;SDS011;44164;44.954;10.068;2022-07-03T00:44:04;2.67;;;1.60;;
58360;SDS011;44164;44.954;10.068;2022-07-03T00:46:30;2.95;;;1.50;;
58360;SDS011;44164;44.954;10.068;2022-07-03T00:48:57;2.15;;;1.25;;
58360;SDS011;44164;44.954;10.068;2022-07-03T00:51:24;2.20;;;1.30;;
58360;SDS011;44164;44.954;10.068;2022-07-03T00:56:28;3.00;;;1.30;;
58360;SDS011;44164;44.954;10.068;2022-07-03T00:58:56;2.53;;;1.40;;
58360;SDS011;44164;44.954;10.068;2022-07-03T01:01:28;2.53;;;1.35;;
58360;SDS011;44164;44.954;10.068;2022-07-03T01:07:10;1.92;;;1.23;;
58360;SDS011;44164;44.954;10.068;2022-07-03T01:13:06;2.08;;;1.30;;
58360;SDS011;44164;44.954;10.068;2022-07-03T01:15:46;2.33;;;1.48;;
58360;SDS011;44164;44.954;10.068;2022-07-03T01:21:15;4.57;;;1.67;;
58360;SDS011;44164;44.954;10.068;2022-07-03T01:26:18;2.38;;;1.20;;
58360;SDS011;44164;44.954;10.068;2022-07-03T01:28:45;3.67;;;1.90;;
58360;SDS011;44164;44.954;10.068;2022-07-03T01:31:17;2.92;;;1.63;;
58360;SDS011;44164;44.954;10.068;2022-07-03T01:33:46;2.17;;;1.48;;
58360;SDS011;44164;44.954;10.068;2022-07-03T01:36:13;3.73;;;1.73;;
58360;SDS011;44164;44.954;10.068;2022-07-03T01:38:41;2.90;;;1.83;;
58360;SDS011;44164;44.954;10.068;2022-07-03T01:41:09;2.33;;;1.27;;
58360;SDS011;44164;44.954;10.068;2022-07-03T01:43:39;3.35;;;1.90;;
58360;SDS011;44164;44.954;10.068;2022-07-03T01:46:10;2.97;;;1.63;;
58360;SDS011;44164;44.954;10.068;2022-07-03T01:48:37;2.30;;;1.60;;
58360;SDS011;44164;44.954;10.068;2022-07-03T01:51:07;2.53;;;1.42;;
58360;SDS011;44164;44.954;10.068;2022-07-03T01:53:35;3.58;;;1.75;;
58360;SDS011;44164;44.954;10.068;2022-07-03T01:56:02;2.58;;;1.63;;
58360;SDS011;44164;44.954;10.068;2022-07-03T01:58:28;2.33;;;1.70;;
58360;SDS011;44164;44.954;10.068;2022-07-03T02:03:41;2.97;;;1.60;;
58360;SDS011;44164;44.954;10.068;2022-07-03T02:06:49;3.92;;;1.50;;
58360;SDS011;44164;44.954;10.068;2022-07-03T02:09:08;2.50;;;1.50;;
58360;SDS011;44164;44.954;10.068;2022-07-03T02:11:40;2.75;;;1.50;;
58360;SDS011;44164;44.954;10.068;2022-07-03T02:16:43;2.35;;;1.67;;
58360;SDS011;44164;44.954;10.068;2022-07-03T02:19:34;2.30;;;1.33;;
58360;SDS011;44164;44.954;10.068;2022-07-03T02:22:03;2.63;;;1.60;;
58360;SDS011;44164;44.954;10.068;2022-07-03T02:24:35;2.00;;;1.40;;
58360;SDS011;44164;44.954;10.068;2022-07-03T02:27:12;3.42;;;1.83;;
58360;SDS011;44164;44.954;10.068;2022-07-03T02:29:49;2.47;;;1.60;;
58360;SDS011;44164;44.954;10.068;2022-07-03T02:32:28;3.17;;;1.77;;
58360;SDS011;44164;44.954;10.068;2022-07-03T02:35:05;1.83;;;1.30;;
58360;SDS011;44164;44.954;10.068;2022-07-03T02:37:41;3.38;;;1.50;;
58360;SDS011;44164;44.954;10.068;2022-07-03T02:40:24;1.88;;;1.30;;
58360;SDS011;44164;44.954;10.068;2022-07-03T02:43:10;2.47;;;1.40;;
58360;SDS011;44164;44.954;10.068;2022-07-03T02:45:42;3.58;;;1.70;;
58360;SDS011;44164;44.954;10.068;2022-07-03T02:48:18;2.50;;;1.50;;
58360;SDS011;44164;44.954;10.068;2022-07-03T02:50:50;2.28;;;1.77;;
58360;SDS011;44164;44.954;10.068;2022-07-03T02:53:26;3.30;;;1.92;;
58360;SDS011;44164;44.954;10.068;2022-07-03T02:56:07;2.30;;;1.55;;
58360;SDS011;44164;44.954;10.068;2022-07-03T02:58:50;1.92;;;1.50;;
58360;SDS011;44164;44.954;10.068;2022-07-03T03:06:33;2.15;;;1.38;;
58360;SDS011;44164;44.954;10.068;2022-07-03T03:09:02;2.67;;;2.10;;
58360;SDS011;44164;44.954;10.068;2022-07-03T03:14:03;2.92;;;1.50;;
58360;SDS011;44164;44.954;10.068;2022-07-03T03:16:32;2.75;;;1.85;;
58360;SDS011;44164;44.954;10.068;2022-07-03T03:18:58;1.83;;;1.30;;
58360;SDS011;44164;44.954;10.068;2022-07-03T03:21:25;2.67;;;1.67;;
58360;SDS011;44164;44.954;10.068;2022-07-03T03:26:22;2.65;;;1.55;;
58360;SDS011;44164;44.954;10.068;2022-07-03T03:28:50;2.40;;;1.80;;
58360;SDS011;44164;44.954;10.068;2022-07-03T03:31:18;2.53;;;1.90;;
58360;SDS011;44164;44.954;10.068;2022-07-03T03:33:46;3.00;;;1.65;;
58360;SDS011;44164;44.954;10.068;2022-07-03T03:36:13;3.00;;;1.92;;
58360;SDS011;44164;44.954;10.068;2022-07-03T03:38:43;2.22;;;1.40;;
58360;SDS011;44164;44.954;10.068;2022-07-03T03:41:09;2.65;;;1.90;;
58360;SDS011;44164;44.954;10.068;2022-07-03T03:43:36;2.35;;;1.75;;
58360;SDS011;44164;44.954;10.068;2022-07-03T03:46:03;2.17;;;1.50;;
58360;SDS011;44164;44.954;10.068;2022-07-03T03:48:33;3.43;;;1.67;;
58360;SDS011;44164;44.954;10.068;2022-07-03T03:51:00;3.92;;;1.60;;
58360;SDS011;44164;44.954;10.068;2022-07-03T03:53:27;2.35;;;1.60;;
58360;SDS011;44164;44.954;10.068;2022-07-03T03:55:58;2.70;;;1.75;;
58360;SDS011;44164;44.954;10.068;2022-07-03T03:58:24;3.55;;;2.10;;
58360;SDS011;44164;44.954;10.068;2022-07-03T04:00:50;3.35;;;2.53;;
58360;SDS011;44164;44.954;10.068;2022-07-03T04:03:18;2.25;;;1.48;;
58360;SDS011;44164;44.954;10.068;2022-07-03T04:05:44;2.88;;;1.75;;
58360;SDS011;44164;44.954;10.068;2022-07-03T04:08:10;3.78;;;1.65;;
58360;SDS011;44164;44.954;10.068;2022-07-03T04:10:37;2.20;;;1.70;;
58360;SDS011;44164;44.954;10.068;2022-07-03T04:13:03;3.35;;;2.30;;
58360;SDS011;44164;44.954;10.068;2022-07-03T04:15:29;3.65;;;1.92;;
58360;SDS011;44164;44.954;10.068;2022-07-03T04:17:55;2.50;;;1.70;;
58360;SDS011;44164;44.954;10.068;2022-07-03T04:20:22;2.47;;;1.80;;
58360;SDS011;44164;44.954;10.068;2022-07-03T04:22:48;2.53;;;1.90;;
58360;SDS011;44164;44.954;10.068;2022-07-03T04:27:45;2.75;;;1.77;;
58360;SDS011;44164;44.954;10.068;2022-07-03T04:30:11;2.72;;;1.70;;
58360;SDS011;44164;44.954;10.068;2022-07-03T04:32:38;2.53;;;1.60;;
58360;SDS011;44164;44.954;10.068;2022-07-03T04:35:04;2.47;;;1.85;;
58360;SDS011;44164;44.954;10.068;2022-07-03T04:37:31;2.65;;;1.73;;
58360;SDS011;44164;44.954;10.068;2022-07-03T04:39:57;2.25;;;1.67;;
58360;SDS011;44164;44.954;10.068;2022-07-03T04:42:23;2.70;;;1.80;;
58360;SDS011;44164;44.954;10.068;2022-07-03T04:44:49;2.67;;;1.80;;
58360;SDS011;44164;44.954;10.068;2022-07-03T04:47:15;2.10;;;1.70;;
58360;SDS011;44164;44.954;10.068;2022-07-03T04:49:42;2.63;;;1.60;;
58360;SDS011;44164;44.954;10.068;2022-07-03T04:52:08;2.40;;;1.70;;
58360;SDS011;44164;44.954;10.068;2022-07-03T04:54:34;3.25;;;1.80;;
58360;SDS011;44164;44.954;10.068;2022-07-03T04:57:01;2.70;;;2.00;;
58360;SDS011;44164;44.954;10.068;2022-07-03T04:59:27;2.88;;;1.95;;
58360;SDS011;44164;44.954;10.068;2022-07-03T05:01:53;2.10;;;1.77;;
58360;SDS011;44164;44.954;10.068;2022-07-03T05:04:19;3.92;;;1.98;;
58360;SDS011;44164;44.954;10.068;2022-07-03T05:06:45;2.72;;;2.22;;
58360;SDS011;44164;44.954;10.068;2022-07-03T05:09:12;3.10;;;2.05;;
58360;SDS011;44164;44.954;10.068;2022-07-03T05:11:39;3.17;;;2.42;;
58360;SDS011;44164;44.954;10.068;2022-07-03T05:14:06;3.95;;;2.30;;
58360;SDS011;44164;44.954;10.068;2022-07-03T05:16:33;2.90;;;1.73;;
58360;SDS011;44164;44.954;10.068;2022-07-03T05:18:59;3.30;;;2.30;;
58360;SDS011;44164;44.954;10.068;2022-07-03T05:21:25;3.58;;;2.35;;
58360;SDS011;44164;44.954;10.068;2022-07-03T05:23:51;3.97;;;2.10;;
58360;SDS011;44164;44.954;10.068;2022-07-03T05:26:18;3.22;;;2.25;;
58360;SDS011;44164;44.954;10.068;2022-07-03T05:28:44;2.75;;;2.08;;
58360;SDS011;44164;44.954;10.068;2022-07-03T05:31:10;2.95;;;2.00;;
58360;SDS011;44164;44.954;10.068;2022-07-03T05:33:36;3.88;;;2.20;;
58360;SDS011;44164;44.954;10.068;2022-07-03T05:36:03;2.45;;;2.03;;
58360;SDS011;44164;44.954;10.068;2022-07-03T05:38:30;2.95;;;2.13;;
58360;SDS011;44164;44.954;10.068;2022-07-03T05:41:15;3.80;;;2.13;;
58360;SDS011;44164;44.954;10.068;2022-07-03T05:43:41;2.83;;;1.85;;
58360;SDS011;44164;44.954;10.068;2022-07-03T05:46:07;2.50;;;1.90;;
58360;SDS011;44164;44.954;10.068;2022-07-03T05:48:33;2.45;;;1.85;;
58360;SDS011;44164;44.954;10.068;2022-07-03T05:51:00;2.78;;;2.10;;
58360;SDS011;44164;44.954;10.068;2022-07-03T05:53:26;2.97;;;1.85;;
58360;SDS011;44164;44.954;10.068;2022-07-03T05:55:53;3.55;;;2.13;;
58360;SDS011;44164;44.954;10.068;2022-07-03T05:58:19;3.17;;;2.13;;
58360;SDS011;44164;44.954;10.068;2022-07-03T06:00:45;2.63;;;1.83;;
58360;SDS011;44164;44.954;10.068;2022-07-03T06:03:12;2.60;;;1.85;;
58360;SDS011;44164;44.954;10.068;2022-07-03T06:05:38;2.65;;;1.90;;
58360;SDS011;44164;44.954;10.068;2022-07-03T06:08:04;3.92;;;1.70;;
58360;SDS011;44164;44.954;10.068;2022-07-03T06:10:31;2.22;;;1.50;;
58360;SDS011;44164;44.954;10.068;2022-07-03T06:12:57;2.55;;;1.83;;
58360;SDS011;44164;44.954;10.068;2022-07-03T06:15:23;2.25;;;1.80;;
58360;SDS011;44164;44.954;10.068;2022-07-03T06:17:49;2.55;;;1.83;;
58360;SDS011;44164;44.954;10.068;2022-07-03T06:20:16;2.55;;;1.58;;
58360;SDS011;44164;44.954;10.068;2022-07-03T06:22:42;2.80;;;1.60;;
58360;SDS011;44164;44.954;10.068;2022-07-03T06:25:09;2.50;;;1.73;;
58360;SDS011;44164;44.954;10.068;2022-07-03T06:27:35;2.53;;;1.58;;
58360;SDS011;44164;44.954;10.068;2022-07-03T06:30:02;2.47;;;1.80;;
58360;SDS011;44164;44.954;10.068;2022-07-03T06:32:28;2.70;;;1.67;;
58360;SDS011;44164;44.954;10.068;2022-07-03T06:34:54;3.35;;;1.70;;
58360;SDS011;44164;44.954;10.068;2022-07-03T06:37:20;2.20;;;1.48;;
58360;SDS011;44164;44.954;10.068;2022-07-03T06:39:47;2.65;;;1.80;;
58360;SDS011;44164;44.954;10.068;2022-07-03T06:42:13;2.58;;;1.80;;
58360;SDS011;44164;44.954;10.068;2022-07-03T06:44:39;2.05;;;1.55;;
58360;SDS011;44164;44.954;10.068;2022-07-03T06:47:07;2.35;;;1.70;;
58360;SDS011;44164;44.954;10.068;2022-07-03T06:49:33;2.05;;;1.55;;
58360;SDS011;44164;44.954;10.068;2022-07-03T06:52:00;2.28;;;1.48;;
58360;SDS011;44164;44.954;10.068;2022-07-03T06:54:26;3.03;;;1.65;;
58360;SDS011;44164;44.954;10.068;2022-07-03T06:56:52;2.50;;;1.50;;
58360;SDS011;44164;44.954;10.068;2022-07-03T06:59:18;1.88;;;1.42;;
58360;SDS011;44164;44.954;10.068;2022-07-03T07:01:44;2.40;;;1.50;;
58360;SDS011;44164;44.954;10.068;2022-07-03T07:04:11;2.20;;;1.45;;
58360;SDS011;44164;44.954;10.068;2022-07-03T07:06:37;2.00;;;1.50;;
58360;SDS011;44164;44.954;10.068;2022-07-03T07:09:03;1.90;;;1.40;;
58360;SDS011;44164;44.954;10.068;2022-07-03T07:11:30;2.17;;;1.73;;
58360;SDS011;44164;44.954;10.068;2022-07-03T07:13:56;4.05;;;1.75;;
58360;SDS011;44164;44.954;10.068;2022-07-03T07:16:22;1.90;;;1.42;;
58360;SDS011;44164;44.954;10.068;2022-07-03T07:18:48;2.08;;;1.38;;
58360;SDS011;44164;44.954;10.068;2022-07-03T07:21:14;2.53;;;1.58;;
58360;SDS011;44164;44.954;10.068;2022-07-03T07:23:40;2.17;;;1.45;;
58360;SDS011;44164;44.954;10.068;2022-07-03T07:26:06;2.15;;;1.55;;
58360;SDS011;44164;44.954;10.068;2022-07-03T07:28:33;2.08;;;1.50;;
58360;SDS011;44164;44.954;10.068;2022-07-03T07:31:01;2.53;;;1.90;;
58360;SDS011;44164;44.954;10.068;2022-07-03T07:33:27;1.95;;;1.38;;
58360;SDS011;44164;44.954;10.068;2022-07-03T07:35:53;1.75;;;1.50;;
58360;SDS011;44164;44.954;10.068;2022-07-03T07:38:19;2.25;;;1.50;;
58360;SDS011;44164;44.954;10.068;2022-07-03T07:40:46;3.97;;;1.88;;
58360;SDS011;44164;44.954;10.068;2022-07-03T07:43:12;2.30;;;1.38;;
58360;SDS011;44164;44.954;10.068;2022-07-03T07:45:39;2.03;;;1.40;;
58360;SDS011;44164;44.954;10.068;2022-07-03T07:48:05;2.25;;;1.42;;
58360;SDS011;44164;44.954;10.068;2022-07-03T07:50:32;2.13;;;1.42;;
58360;SDS011;44164;44.954;10.068;2022-07-03T07:52:59;1.67;;;1.15;;
58360;SDS011;44164;44.954;10.068;2022-07-03T07:55:25;2.90;;;1.60;;
58360;SDS011;44164;44.954;10.068;2022-07-03T07:57:51;2.38;;;1.33;;
58360;SDS011;44164;44.954;10.068;2022-07-03T08:00:17;2.10;;;1.73;;
58360;SDS011;44164;44.954;10.068;2022-07-03T08:02:45;1.92;;;1.35;;
58360;SDS011;44164;44.954;10.068;2022-07-03T08:05:30;1.83;;;1.23;;
58360;SDS011;44164;44.954;10.068;2022-07-03T08:08:04;1.90;;;1.40;;
58360;SDS011;44164;44.954;10.068;2022-07-03T08:10:48;2.42;;;1.42;;
58360;SDS011;44164;44.954;10.068;2022-07-03T08:13:16;2.65;;;1.30;;
58360;SDS011;44164;44.954;10.068;2022-07-03T08:15:43;2.08;;;1.35;;
58360;SDS011;44164;44.954;10.068;2022-07-03T08:18:10;2.10;;;1.42;;
58360;SDS011;44164;44.954;10.068;2022-07-03T08:20:37;1.98;;;1.30;;
58360;SDS011;44164;44.954;10.068;2022-07-03T08:23:03;2.03;;;1.30;;
58360;SDS011;44164;44.954;10.068;2022-07-03T08:25:29;1.90;;;1.38;;
58360;SDS011;44164;44.954;10.068;2022-07-03T08:27:56;2.22;;;1.33;;
58360;SDS011;44164;44.954;10.068;2022-07-03T08:30:23;1.98;;;1.13;;
58360;SDS011;44164;44.954;10.068;2022-07-03T08:32:50;2.85;;;1.55;;
58360;SDS011;44164;44.954;10.068;2022-07-03T08:35:17;2.13;;;1.30;;
58360;SDS011;44164;44.954;10.068;2022-07-03T08:37:43;1.98;;;1.45;;
58360;SDS011;44164;44.954;10.068;2022-07-03T08:40:12;2.33;;;1.42;;
58360;SDS011;44164;44.954;10.068;2022-07-03T08:42:43;2.30;;;1.40;;
58360;SDS011;44164;44.954;10.068;2022-07-03T08:45:15;2.35;;;1.25;;
58360;SDS011;44164;44.954;10.068;2022-07-03T08:47:44;2.10;;;1.65;;
58360;SDS011;44164;44.954;10.068;2022-07-03T08:50:11;2.50;;;1.50;;
58360;SDS011;44164;44.954;10.068;2022-07-03T08:52:39;1.80;;;1.30;;
58360;SDS011;44164;44.954;10.068;2022-07-03T08:55:06;1.85;;;1.10;;
58360;SDS011;44164;44.954;10.068;2022-07-03T08:57:33;1.73;;;1.30;;
58360;SDS011;44164;44.954;10.068;2022-07-03T09:00:05;1.98;;;1.50;;
58360;SDS011;44164;44.954;10.068;2022-07-03T09:02:33;2.53;;;1.55;;
58360;SDS011;44164;44.954;10.068;2022-07-03T09:04:59;2.47;;;1.70;;
58360;SDS011;44164;44.954;10.068;2022-07-03T09:07:28;7.78;;;1.58;;
58360;SDS011;44164;44.954;10.068;2022-07-03T09:09:57;2.05;;;1.50;;
58360;SDS011;44164;44.954;10.068;2022-07-03T09:12:23;5.20;;;1.73;;
58360;SDS011;44164;44.954;10.068;2022-07-03T09:14:49;3.72;;;1.50;;
58360;SDS011;44164;44.954;10.068;2022-07-03T09:17:15;4.25;;;1.85;;
58360;SDS011;44164;44.954;10.068;2022-07-03T09:19:45;7.30;;;2.65;;
58360;SDS011;44164;44.954;10.068;2022-07-03T09:22:23;5.30;;;2.45;;
58360;SDS011;44164;44.954;10.068;2022-07-03T09:24:54;5.50;;;2.92;;
58360;SDS011;44164;44.954;10.068;2022-07-03T09:27:31;6.28;;;2.83;;
58360;SDS011;44164;44.954;10.068;2022-07-03T09:32:24;6.00;;;2.95;;
58360;SDS011;44164;44.954;10.068;2022-07-03T09:35:09;10.68;;;3.45;;
58360;SDS011;44164;44.954;10.068;2022-07-03T09:37:48;21.33;;;3.50;;
58360;SDS011;44164;44.954;10.068;2022-07-03T09:40:24;7.35;;;3.05;;
58360;SDS011;44164;44.954;10.068;2022-07-03T09:45:27;10.75;;;3.00;;
58360;SDS011;44164;44.954;10.068;2022-07-03T09:47:54;6.70;;;3.17;;
58360;SDS011;44164;44.954;10.068;2022-07-03T09:50:20;5.20;;;3.00;;
58360;SDS011;44164;44.954;10.068;2022-07-03T09:52:46;5.20;;;2.90;;
58360;SDS011;44164;44.954;10.068;2022-07-03T09:55:14;5.07;;;3.38;;
58360;SDS011;44164;44.954;10.068;2022-07-03T09:57:45;5.38;;;3.17;;
58360;SDS011;44164;44.954;10.068;2022-07-03T10:03:00;4.60;;;3.65;;
58360;SDS011;44164;44.954;10.068;2022-07-03T10:05:37;7.40;;;3.58;;
58360;SDS011;44164;44.954;10.068;2022-07-03T10:08:08;5.72;;;3.25;;
58360;SDS011;44164;44.954;10.068;2022-07-03T10:10:35;4.80;;;3.42;;
58360;SDS011;44164;44.954;10.068;2022-07-03T10:13:02;6.03;;;3.25;;
58360;SDS011;44164;44.954;10.068;2022-07-03T10:15:30;5.53;;;3.40;;
58360;SDS011;44164;44.954;10.068;2022-07-03T10:17:58;6.68;;;3.40;;
58360;SDS011;44164;44.954;10.068;2022-07-03T10:21:08;6.45;;;3.50;;
58360;SDS011;44164;44.954;10.068;2022-07-03T10:23:16;4.63;;;3.00;;
58360;SDS011;44164;44.954;10.068;2022-07-03T10:25:43;4.78;;;3.20;;
58360;SDS011;44164;44.954;10.068;2022-07-03T10:28:13;5.83;;;3.50;;
58360;SDS011;44164;44.954;10.068;2022-07-03T10:30:45;4.07;;;3.17;;
58360;SDS011;44164;44.954;10.068;2022-07-03T10:33:12;6.22;;;3.22;;
58360;SDS011;44164;44.954;10.068;2022-07-03T10:36:12;6.28;;;3.72;;
58360;SDS011;44164;44.954;10.068;2022-07-03T10:41:15;4.72;;;3.20;;
58360;SDS011;44164;44.954;10.068;2022-07-03T10:44:04;5.90;;;3.65;;
58360;SDS011;44164;44.954;10.068;2022-07-03T10:46:48;4.00;;;3.10;;
58360;SDS011;44164;44.954;10.068;2022-07-03T10:49:14;7.18;;;3.97;;
58360;SDS011;44164;44.954;10.068;2022-07-03T11:02:20;5.88;;;3.20;;
58360;SDS011;44164;44.954;10.068;2022-07-03T11:07:28;12.43;;;3.85;;
58360;SDS011;44164;44.954;10.068;2022-07-03T11:25:54;5.88;;;3.42;;
58360;SDS011;44164;44.954;10.068;2022-07-03T11:33:44;5.93;;;4.10;;
58360;SDS011;44164;44.954;10.068;2022-07-03T11:41:23;6.85;;;3.88;;
58360;SDS011;44164;44.954;10.068;2022-07-03T11:44:13;5.32;;;4.03;;
58360;SDS011;44164;44.954;10.068;2022-07-03T11:46:41;5.22;;;3.80;;
58360;SDS011;44164;44.954;10.068;2022-07-03T11:49:11;9.30;;;3.78;;
58360;SDS011;44164;44.954;10.068;2022-07-03T11:51:40;7.03;;;4.63;;
58360;SDS011;44164;44.954;10.068;2022-07-03T11:54:07;5.82;;;3.92;;
58360;SDS011;44164;44.954;10.068;2022-07-03T11:56:34;6.65;;;3.92;;
58360;SDS011;44164;44.954;10.068;2022-07-03T12:01:38;7.07;;;3.63;;
58360;SDS011;44164;44.954;10.068;2022-07-03T12:04:11;7.45;;;3.47;;
58360;SDS011;44164;44.954;10.068;2022-07-03T12:06:49;5.88;;;3.72;;
58360;SDS011;44164;44.954;10.068;2022-07-03T12:09:18;6.78;;;3.72;;
58360;SDS011;44164;44.954;10.068;2022-07-03T12:17:03;7.50;;;3.53;;
58360;SDS011;44164;44.954;10.068;2022-07-03T12:19:30;6.00;;;4.03;;
58360;SDS011;44164;44.954;10.068;2022-07-03T12:21:56;4.18;;;3.35;;
58360;SDS011;44164;44.954;10.068;2022-07-03T12:24:22;5.30;;;3.30;;
58360;SDS011;44164;44.954;10.068;2022-07-03T12:26:49;7.82;;;3.92;;
58360;SDS011;44164;44.954;10.068;2022-07-03T12:29:15;6.70;;;3.83;;
58360;SDS011;44164;44.954;10.068;2022-07-03T12:31:44;9.02;;;3.55;;
58360;SDS011;44164;44.954;10.068;2022-07-03T12:34:11;7.00;;;3.42;;
58360;SDS011;44164;44.954;10.068;2022-07-03T12:39:05;8.13;;;3.45;;
58360;SDS011;44164;44.954;10.068;2022-07-03T12:41:31;9.23;;;4.07;;
58360;SDS011;44164;44.954;10.068;2022-07-03T12:43:58;8.82;;;4.22;;
58360;SDS011;44164;44.954;10.068;2022-07-03T12:48:58;6.60;;;4.35;;
58360;SDS011;44164;44.954;10.068;2022-07-03T12:54:14;6.43;;;3.97;;
58360;SDS011;44164;44.954;10.068;2022-07-03T12:56:41;6.88;;;4.05;;
58360;SDS011;44164;44.954;10.068;2022-07-03T12:59:24;8.02;;;3.90;;
58360;SDS011;44164;44.954;10.068;2022-07-03T13:02:01;5.60;;;3.50;;
58360;SDS011;44164;44.954;10.068;2022-07-03T13:04:32;5.72;;;3.88;;
58360;SDS011;44164;44.954;10.068;2022-07-03T13:07:03;6.78;;;4.10;;
58360;SDS011;44164;44.954;10.068;2022-07-03T13:09:36;6.43;;;3.33;;
58360;SDS011;44164;44.954;10.068;2022-07-03T13:12:03;5.30;;;3.60;;
58360;SDS011;44164;44.954;10.068;2022-07-03T13:14:29;6.65;;;4.43;;
58360;SDS011;44164;44.954;10.068;2022-07-03T13:16:56;9.40;;;4.28;;
58360;SDS011;44164;44.954;10.068;2022-07-03T13:19:24;5.13;;;3.58;;
58360;SDS011;44164;44.954;10.068;2022-07-03T13:21:52;8.07;;;4.07;;
58360;SDS011;44164;44.954;10.068;2022-07-03T13:26:46;15.00;;;3.83;;
58360;SDS011;44164;44.954;10.068;2022-07-03T13:29:12;7.40;;;3.78;;
58360;SDS011;44164;44.954;10.068;2022-07-03T13:31:39;8.85;;;4.20;;
58360;SDS011;44164;44.954;10.068;2022-07-03T13:34:05;5.43;;;2.97;;
58360;SDS011;44164;44.954;10.068;2022-07-03T13:36:32;7.78;;;3.90;;
58360;SDS011;44164;44.954;10.068;2022-07-03T13:38:59;6.90;;;4.15;;
58360;SDS011;44164;44.954;10.068;2022-07-03T13:41:26;12.05;;;4.07;;
58360;SDS011;44164;44.954;10.068;2022-07-03T13:43:52;6.18;;;4.20;;
58360;SDS011;44164;44.954;10.068;2022-07-03T13:46:19;5.55;;;3.97;;
58360;SDS011;44164;44.954;10.068;2022-07-03T13:48:50;6.95;;;4.05;;
58360;SDS011;44164;44.954;10.068;2022-07-03T13:51:17;7.27;;;3.63;;
58360;SDS011;44164;44.954;10.068;2022-07-03T13:53:43;6.18;;;3.53;;
58360;SDS011;44164;44.954;10.068;2022-07-03T13:56:09;5.15;;;3.70;;
58360;SDS011;44164;44.954;10.068;2022-07-03T13:58:36;9.27;;;4.00;;
58360;SDS011;44164;44.954;10.068;2022-07-03T14:01:02;8.48;;;3.50;;
58360;SDS011;44164;44.954;10.068;2022-07-03T14:03:28;4.53;;;3.17;;
58360;SDS011;44164;44.954;10.068;2022-07-03T14:05:54;5.43;;;3.42;;
58360;SDS011;44164;44.954;10.068;2022-07-03T14:08:21;6.23;;;3.20;;
58360;SDS011;44164;44.954;10.068;2022-07-03T14:10:47;4.88;;;3.60;;
58360;SDS011;44164;44.954;10.068;2022-07-03T14:13:14;8.00;;;3.15;;
58360;SDS011;44164;44.954;10.068;2022-07-03T14:15:40;8.73;;;3.88;;
58360;SDS011;44164;44.954;10.068;2022-07-03T14:18:06;6.72;;;3.10;;
58360;SDS011;44164;44.954;10.068;2022-07-03T14:20:32;5.90;;;3.15;;
58360;SDS011;44164;44.954;10.068;2022-07-03T14:22:58;6.53;;;3.67;;
58360;SDS011;44164;44.954;10.068;2022-07-03T14:25:24;5.50;;;3.42;;
58360;SDS011;44164;44.954;10.068;2022-07-03T14:27:50;4.63;;;3.30;;
58360;SDS011;44164;44.954;10.068;2022-07-03T14:30:35;6.35;;;3.03;;
58360;SDS011;44164;44.954;10.068;2022-07-03T14:33:20;5.45;;;3.63;;
58360;SDS011;44164;44.954;10.068;2022-07-03T14:35:46;5.15;;;2.92;;
58360;SDS011;44164;44.954;10.068;2022-07-03T14:38:12;5.50;;;2.80;;
58360;SDS011;44164;44.954;10.068;2022-07-03T14:40:38;9.15;;;3.42;;
58360;SDS011;44164;44.954;10.068;2022-07-03T14:43:05;5.43;;;3.15;;
58360;SDS011;44164;44.954;10.068;2022-07-03T14:45:31;5.68;;;2.75;;
58360;SDS011;44164;44.954;10.068;2022-07-03T14:47:57;4.72;;;3.00;;
58360;SDS011;44164;44.954;10.068;2022-07-03T14:50:23;4.55;;;2.80;;
58360;SDS011;44164;44.954;10.068;2022-07-03T14:52:49;7.13;;;3.17;;
58360;SDS011;44164;44.954;10.068;2022-07-03T14:55:15;5.10;;;2.83;;
58360;SDS011;44164;44.954;10.068;2022-07-03T14:57:52;8.43;;;3.05;;
58360;SDS011;44164;44.954;10.068;2022-07-03T15:00:19;4.35;;;3.25;;
58360;SDS011;44164;44.954;10.068;2022-07-03T15:02:49;4.00;;;2.60;;
58360;SDS011;44164;44.954;10.068;2022-07-03T15:05:21;8.82;;;3.42;;
58360;SDS011;44164;44.954;10.068;2022-07-03T15:08:03;6.63;;;2.88;;
58360;SDS011;44164;44.954;10.068;2022-07-03T15:10:35;3.88;;;2.97;;
58360;SDS011;44164;44.954;10.068;2022-07-03T15:13:05;5.25;;;3.42;;
58360;SDS011;44164;44.954;10.068;2022-07-03T15:15:32;7.00;;;2.70;;
58360;SDS011;44164;44.954;10.068;2022-07-03T15:18:00;6.20;;;2.67;;
58360;SDS011;44164;44.954;10.068;2022-07-03T15:20:32;5.60;;;3.10;;
58360;SDS011;44164;44.954;10.068;2022-07-03T15:23:03;4.45;;;3.10;;
58360;SDS011;44164;44.954;10.068;2022-07-03T15:25:32;7.55;;;3.03;;
58360;SDS011;44164;44.954;10.068;2022-07-03T15:30:25;4.20;;;3.30;;
58360;SDS011;44164;44.954;10.068;2022-07-03T15:32:53;5.78;;;2.78;;
58360;SDS011;44164;44.954;10.068;2022-07-03T15:35:20;4.10;;;2.60;;
58360;SDS011;44164;44.954;10.068;2022-07-03T15:37:56;3.47;;;2.75;;
58360;SDS011;44164;44.954;10.068;2022-07-03T15:40:40;3.60;;;2.63;;
58360;SDS011;44164;44.954;10.068;2022-07-03T15:43:48;3.40;;;2.60;;
58360;SDS011;44164;44.954;10.068;2022-07-03T15:51:52;4.35;;;2.88;;
58360;SDS011;44164;44.954;10.068;2022-07-03T15:54:23;5.03;;;2.97;;
58360;SDS011;44164;44.954;10.068;2022-07-03T15:56:54;3.85;;;2.50;;
58360;SDS011;44164;44.954;10.068;2022-07-03T15:59:23;4.50;;;2.47;;
58360;SDS011;44164;44.954;10.068;2022-07-03T16:01:52;4.70;;;2.40;;
58360;SDS011;44164;44.954;10.068;2022-07-03T16:07:23;5.30;;;2.38;;
58360;SDS011;44164;44.954;10.068;2022-07-03T16:09:50;5.20;;;2.78;;
58360;SDS011;44164;44.954;10.068;2022-07-03T16:12:17;4.53;;;2.92;;
58360;SDS011;44164;44.954;10.068;2022-07-03T16:14:48;5.80;;;2.60;;
58360;SDS011;44164;44.954;10.068;2022-07-03T16:17:19;3.53;;;2.63;;
58360;SDS011;44164;44.954;10.068;2022-07-03T16:19:46;4.85;;;2.75;;
58360;SDS011;44164;44.954;10.068;2022-07-03T16:22:13;4.43;;;2.88;;
58360;SDS011;44164;44.954;10.068;2022-07-03T16:24:40;3.67;;;2.53;;
58360;SDS011;44164;44.954;10.068;2022-07-03T16:29:36;5.72;;;3.35;;
58360;SDS011;44164;44.954;10.068;2022-07-03T16:32:03;4.65;;;2.80;;
58360;SDS011;44164;44.954;10.068;2022-07-03T16:34:30;6.77;;;3.63;;
58360;SDS011;44164;44.954;10.068;2022-07-03T16:36:58;7.28;;;3.20;;
58360;SDS011;44164;44.954;10.068;2022-07-03T16:39:35;5.95;;;3.20;;